sensor_id;sensor_type;location;lat;lon;timestamp;P1;durP1;ratioP1;P2;durP2;ratioP2
57047;SDS011;42934;54.294;18.598;2023-03-23T00:01:18;24.63;;;16.97;;
57047;SDS011;42934;54.294;18.598;2023-03-23T00:03:48;25.90;;;17.27;;
57047;SDS011;42934;54.294;18.598;2023-03-23T00:06:18;24.10;;;15.85;;
57047;SDS011;42934;54.294;18.598;2023-03-23T00:08:48;23.13;;;15.88;;
57047;SDS011;42934;54.294;18.598;2023-03-23T00:11:23;24.05;;;16.45;;
57047;SDS011;42934;54.294;18.598;2023-03-23T00:13:55;23.67;;;16.35;;
57047;SDS011;42934;54.294;18.598;2023-03-23T00:16:27;23.17;;;15.68;;
57047;SDS011;42934;54.294;18.598;2023-03-23T00:18:58;21.05;;;15.88;;
57047;SDS011;42934;54.294;18.598;2023-03-23T00:21:30;23.48;;;16.52;;
57047;SDS011;42934;54.294;18.598;2023-03-23T00:24:01;21.75;;;16.17;;
57047;SDS011;42934;54.294;18.598;2023-03-23T00:26:32;25.23;;;16.15;;
57047;SDS011;42934;54.294;18.598;2023-03-23T00:29:02;23.10;;;16.48;;
57047;SDS011;42934;54.294;18.598;2023-03-23T00:31:31;24.13;;;15.67;;
57047;SDS011;42934;54.294;18.598;2023-03-23T00:34:02;23.05;;;16.70;;
57047;SDS011;42934;54.294;18.598;2023-03-23T00:39:11;21.50;;;15.23;;
57047;SDS011;42934;54.294;18.598;2023-03-23T00:41:42;22.58;;;16.30;;
57047;SDS011;42934;54.294;18.598;2023-03-23T00:44:10;23.40;;;16.98;;
57047;SDS011;42934;54.294;18.598;2023-03-23T00:46:43;24.88;;;15.07;;
57047;SDS011;42934;54.294;18.598;2023-03-23T00:49:12;27.83;;;16.35;;
57047;SDS011;42934;54.294;18.598;2023-03-23T00:51:43;20.50;;;15.38;;
57047;SDS011;42934;54.294;18.598;2023-03-23T00:54:11;24.20;;;16.00;;
57047;SDS011;42934;54.294;18.598;2023-03-23T00:56:39;23.77;;;16.52;;
57047;SDS011;42934;54.294;18.598;2023-03-23T00:59:08;20.20;;;15.68;;
57047;SDS011;42934;54.294;18.598;2023-03-23T01:01:36;22.02;;;15.68;;
57047;SDS011;42934;54.294;18.598;2023-03-23T01:04:05;21.02;;;15.40;;
57047;SDS011;42934;54.294;18.598;2023-03-23T01:06:34;24.48;;;15.30;;
57047;SDS011;42934;54.294;18.598;2023-03-23T01:09:06;19.85;;;15.38;;
57047;SDS011;42934;54.294;18.598;2023-03-23T01:11:36;20.25;;;15.18;;
57047;SDS011;42934;54.294;18.598;2023-03-23T01:14:04;22.50;;;15.35;;
57047;SDS011;42934;54.294;18.598;2023-03-23T01:16:33;21.42;;;15.13;;
57047;SDS011;42934;54.294;18.598;2023-03-23T01:19:01;22.65;;;15.82;;
57047;SDS011;42934;54.294;18.598;2023-03-23T01:21:30;22.98;;;14.55;;
57047;SDS011;42934;54.294;18.598;2023-03-23T01:23:58;21.48;;;14.82;;
57047;SDS011;42934;54.294;18.598;2023-03-23T01:26:28;21.27;;;14.77;;
57047;SDS011;42934;54.294;18.598;2023-03-23T01:28:56;19.20;;;14.18;;
57047;SDS011;42934;54.294;18.598;2023-03-23T01:31:26;21.95;;;14.48;;
57047;SDS011;42934;54.294;18.598;2023-03-23T01:33:54;20.23;;;15.10;;
57047;SDS011;42934;54.294;18.598;2023-03-23T01:36:25;23.23;;;14.23;;
57047;SDS011;42934;54.294;18.598;2023-03-23T01:39:03;17.10;;;13.43;;
57047;SDS011;42934;54.294;18.598;2023-03-23T01:41:34;22.00;;;14.60;;
57047;SDS011;42934;54.294;18.598;2023-03-23T01:44:06;20.42;;;14.52;;
57047;SDS011;42934;54.294;18.598;2023-03-23T01:47:00;19.83;;;13.85;;
57047;SDS011;42934;54.294;18.598;2023-03-23T01:49:29;20.40;;;14.18;;
57047;SDS011;42934;54.294;18.598;2023-03-23T01:52:03;19.52;;;14.13;;
57047;SDS011;42934;54.294;18.598;2023-03-23T01:54:35;21.92;;;14.70;;
57047;SDS011;42934;54.294;18.598;2023-03-23T01:57:07;22.27;;;14.20;;
57047;SDS011;42934;54.294;18.598;2023-03-23T01:59:41;19.63;;;14.20;;
57047;SDS011;42934;54.294;18.598;2023-03-23T02:02:18;18.90;;;14.07;;
57047;SDS011;42934;54.294;18.598;2023-03-23T02:04:48;20.63;;;14.77;;
57047;SDS011;42934;54.294;18.598;2023-03-23T02:07:18;20.55;;;14.13;;
57047;SDS011;42934;54.294;18.598;2023-03-23T02:09:49;18.60;;;13.60;;
57047;SDS011;42934;54.294;18.598;2023-03-23T02:12:20;19.75;;;13.55;;
57047;SDS011;42934;54.294;18.598;2023-03-23T02:14:50;19.13;;;13.18;;
57047;SDS011;42934;54.294;18.598;2023-03-23T02:17:21;18.00;;;12.77;;
57047;SDS011;42934;54.294;18.598;2023-03-23T02:20:06;19.40;;;13.43;;
57047;SDS011;42934;54.294;18.598;2023-03-23T02:22:55;18.10;;;13.10;;
57047;SDS011;42934;54.294;18.598;2023-03-23T02:25:53;17.65;;;13.18;;
57047;SDS011;42934;54.294;18.598;2023-03-23T02:28:38;18.42;;;12.35;;
57047;SDS011;42934;54.294;18.598;2023-03-23T02:31:33;16.20;;;12.45;;
57047;SDS011;42934;54.294;18.598;2023-03-23T02:34:16;17.00;;;12.75;;
57047;SDS011;42934;54.294;18.598;2023-03-23T02:36:46;20.48;;;13.10;;
57047;SDS011;42934;54.294;18.598;2023-03-23T02:39:24;18.00;;;12.30;;
57047;SDS011;42934;54.294;18.598;2023-03-23T02:41:58;20.83;;;12.77;;
57047;SDS011;42934;54.294;18.598;2023-03-23T02:44:32;19.52;;;12.50;;
57047;SDS011;42934;54.294;18.598;2023-03-23T02:47:04;16.02;;;11.68;;
57047;SDS011;42934;54.294;18.598;2023-03-23T02:49:36;18.00;;;11.82;;
57047;SDS011;42934;54.294;18.598;2023-03-23T02:52:08;16.45;;;11.93;;
57047;SDS011;42934;54.294;18.598;2023-03-23T02:54:42;16.73;;;11.63;;
57047;SDS011;42934;54.294;18.598;2023-03-23T02:57:13;17.95;;;12.15;;
57047;SDS011;42934;54.294;18.598;2023-03-23T03:02:13;18.23;;;11.87;;
57047;SDS011;42934;54.294;18.598;2023-03-23T03:04:47;16.40;;;12.15;;
57047;SDS011;42934;54.294;18.598;2023-03-23T03:10:22;20.00;;;12.10;;
57047;SDS011;42934;54.294;18.598;2023-03-23T03:12:57;15.55;;;11.13;;
57047;SDS011;42934;54.294;18.598;2023-03-23T03:15:32;16.40;;;11.52;;
57047;SDS011;42934;54.294;18.598;2023-03-23T03:18:05;16.38;;;11.43;;
57047;SDS011;42934;54.294;18.598;2023-03-23T03:20:43;15.05;;;11.25;;
57047;SDS011;42934;54.294;18.598;2023-03-23T03:23:15;17.60;;;11.57;;
57047;SDS011;42934;54.294;18.598;2023-03-23T03:25:47;15.82;;;11.45;;
57047;SDS011;42934;54.294;18.598;2023-03-23T03:28:25;19.13;;;12.27;;
57047;SDS011;42934;54.294;18.598;2023-03-23T03:30:55;17.23;;;11.48;;
57047;SDS011;42934;54.294;18.598;2023-03-23T03:33:26;13.63;;;10.43;;
57047;SDS011;42934;54.294;18.598;2023-03-23T03:35:59;13.65;;;10.73;;
57047;SDS011;42934;54.294;18.598;2023-03-23T03:38:29;18.25;;;11.25;;
57047;SDS011;42934;54.294;18.598;2023-03-23T03:41:08;16.48;;;10.98;;
57047;SDS011;42934;54.294;18.598;2023-03-23T03:43:36;17.42;;;11.07;;
57047;SDS011;42934;54.294;18.598;2023-03-23T03:46:05;17.50;;;11.52;;
57047;SDS011;42934;54.294;18.598;2023-03-23T03:48:33;12.95;;;10.70;;
57047;SDS011;42934;54.294;18.598;2023-03-23T03:51:03;15.65;;;10.43;;
57047;SDS011;42934;54.294;18.598;2023-03-23T03:53:35;15.18;;;10.10;;
57047;SDS011;42934;54.294;18.598;2023-03-23T03:56:04;13.63;;;10.00;;
57047;SDS011;42934;54.294;18.598;2023-03-23T03:58:39;17.10;;;10.82;;
57047;SDS011;42934;54.294;18.598;2023-03-23T04:01:40;15.48;;;9.90;;
57047;SDS011;42934;54.294;18.598;2023-03-23T04:04:08;12.68;;;9.70;;
57047;SDS011;42934;54.294;18.598;2023-03-23T04:06:39;18.45;;;10.52;;
57047;SDS011;42934;54.294;18.598;2023-03-23T04:09:07;18.90;;;10.32;;
57047;SDS011;42934;54.294;18.598;2023-03-23T04:11:37;17.05;;;10.80;;
57047;SDS011;42934;54.294;18.598;2023-03-23T04:14:26;14.13;;;9.70;;
57047;SDS011;42934;54.294;18.598;2023-03-23T04:16:54;18.30;;;11.13;;
57047;SDS011;42934;54.294;18.598;2023-03-23T04:19:24;20.08;;;11.05;;
57047;SDS011;42934;54.294;18.598;2023-03-23T04:21:56;18.77;;;11.00;;
57047;SDS011;42934;54.294;18.598;2023-03-23T04:24:24;16.67;;;10.68;;
57047;SDS011;42934;54.294;18.598;2023-03-23T04:26:55;13.52;;;10.13;;
57047;SDS011;42934;54.294;18.598;2023-03-23T04:29:27;13.85;;;10.32;;
57047;SDS011;42934;54.294;18.598;2023-03-23T04:32:16;14.68;;;10.05;;
57047;SDS011;42934;54.294;18.598;2023-03-23T04:34:49;14.45;;;10.40;;
57047;SDS011;42934;54.294;18.598;2023-03-23T04:37:23;15.02;;;9.95;;
57047;SDS011;42934;54.294;18.598;2023-03-23T04:39:55;19.08;;;10.93;;
57047;SDS011;42934;54.294;18.598;2023-03-23T04:42:29;16.48;;;10.75;;
57047;SDS011;42934;54.294;18.598;2023-03-23T04:45:27;20.95;;;11.10;;
57047;SDS011;42934;54.294;18.598;2023-03-23T04:47:59;19.65;;;10.23;;
57047;SDS011;42934;54.294;18.598;2023-03-23T04:50:47;16.52;;;11.32;;
57047;SDS011;42934;54.294;18.598;2023-03-23T04:53:24;21.13;;;10.95;;
57047;SDS011;42934;54.294;18.598;2023-03-23T04:55:52;15.48;;;10.18;;
57047;SDS011;42934;54.294;18.598;2023-03-23T04:58:21;17.45;;;9.90;;
57047;SDS011;42934;54.294;18.598;2023-03-23T05:01:13;14.65;;;10.50;;
57047;SDS011;42934;54.294;18.598;2023-03-23T05:03:53;16.08;;;10.93;;
57047;SDS011;42934;54.294;18.598;2023-03-23T05:06:21;15.20;;;9.52;;
57047;SDS011;42934;54.294;18.598;2023-03-23T05:08:56;15.63;;;10.32;;
57047;SDS011;42934;54.294;18.598;2023-03-23T05:13:54;16.70;;;10.48;;
57047;SDS011;42934;54.294;18.598;2023-03-23T05:16:22;13.65;;;10.82;;
57047;SDS011;42934;54.294;18.598;2023-03-23T05:18:51;17.45;;;11.02;;
57047;SDS011;42934;54.294;18.598;2023-03-23T05:21:23;15.93;;;10.90;;
57047;SDS011;42934;54.294;18.598;2023-03-23T05:23:54;15.30;;;10.52;;
57047;SDS011;42934;54.294;18.598;2023-03-23T05:26:27;15.75;;;10.68;;
57047;SDS011;42934;54.294;18.598;2023-03-23T05:29:03;15.07;;;9.82;;
57047;SDS011;42934;54.294;18.598;2023-03-23T05:31:44;15.98;;;10.10;;
57047;SDS011;42934;54.294;18.598;2023-03-23T05:34:14;15.75;;;9.25;;
57047;SDS011;42934;54.294;18.598;2023-03-23T05:36:55;13.40;;;9.63;;
57047;SDS011;42934;54.294;18.598;2023-03-23T05:39:35;13.57;;;9.00;;
57047;SDS011;42934;54.294;18.598;2023-03-23T05:42:32;12.77;;;9.23;;
57047;SDS011;42934;54.294;18.598;2023-03-23T05:45:10;14.68;;;9.48;;
57047;SDS011;42934;54.294;18.598;2023-03-23T05:47:40;14.23;;;9.30;;
57047;SDS011;42934;54.294;18.598;2023-03-23T05:50:13;13.85;;;9.15;;
57047;SDS011;42934;54.294;18.598;2023-03-23T05:52:41;12.27;;;8.70;;
57047;SDS011;42934;54.294;18.598;2023-03-23T05:55:13;13.30;;;9.15;;
57047;SDS011;42934;54.294;18.598;2023-03-23T05:57:48;12.75;;;8.88;;
57047;SDS011;42934;54.294;18.598;2023-03-23T06:00:23;13.13;;;8.25;;
57047;SDS011;42934;54.294;18.598;2023-03-23T06:03:03;12.27;;;8.45;;
57047;SDS011;42934;54.294;18.598;2023-03-23T06:05:42;13.43;;;8.90;;
57047;SDS011;42934;54.294;18.598;2023-03-23T06:08:14;11.30;;;8.30;;
57047;SDS011;42934;54.294;18.598;2023-03-23T06:10:44;12.55;;;8.63;;
57047;SDS011;42934;54.294;18.598;2023-03-23T06:13:13;12.10;;;9.13;;
57047;SDS011;42934;54.294;18.598;2023-03-23T06:15:47;11.93;;;8.68;;
57047;SDS011;42934;54.294;18.598;2023-03-23T06:18:19;12.82;;;9.00;;
57047;SDS011;42934;54.294;18.598;2023-03-23T06:21:08;12.98;;;9.20;;
57047;SDS011;42934;54.294;18.598;2023-03-23T06:23:51;15.07;;;9.40;;
57047;SDS011;42934;54.294;18.598;2023-03-23T06:26:27;15.80;;;9.50;;
57047;SDS011;42934;54.294;18.598;2023-03-23T06:29:00;16.08;;;9.15;;
57047;SDS011;42934;54.294;18.598;2023-03-23T06:31:31;14.30;;;8.55;;
57047;SDS011;42934;54.294;18.598;2023-03-23T06:34:01;13.35;;;8.82;;
57047;SDS011;42934;54.294;18.598;2023-03-23T06:37:02;15.35;;;8.60;;
57047;SDS011;42934;54.294;18.598;2023-03-23T06:39:38;12.82;;;7.97;;
57047;SDS011;42934;54.294;18.598;2023-03-23T06:42:18;15.40;;;7.80;;
57047;SDS011;42934;54.294;18.598;2023-03-23T06:44:54;12.57;;;7.82;;
57047;SDS011;42934;54.294;18.598;2023-03-23T06:47:24;13.98;;;7.70;;
57047;SDS011;42934;54.294;18.598;2023-03-23T06:49:56;12.60;;;7.30;;
57047;SDS011;42934;54.294;18.598;2023-03-23T06:52:27;15.45;;;8.38;;
57047;SDS011;42934;54.294;18.598;2023-03-23T06:54:55;13.27;;;7.85;;
57047;SDS011;42934;54.294;18.598;2023-03-23T06:57:25;11.98;;;8.07;;
57047;SDS011;42934;54.294;18.598;2023-03-23T06:59:54;10.48;;;7.75;;
57047;SDS011;42934;54.294;18.598;2023-03-23T07:02:24;12.25;;;7.90;;
57047;SDS011;42934;54.294;18.598;2023-03-23T07:04:53;12.00;;;7.28;;
57047;SDS011;42934;54.294;18.598;2023-03-23T07:10:07;10.20;;;7.70;;
57047;SDS011;42934;54.294;18.598;2023-03-23T07:12:39;16.58;;;8.45;;
57047;SDS011;42934;54.294;18.598;2023-03-23T07:15:09;13.15;;;7.68;;
57047;SDS011;42934;54.294;18.598;2023-03-23T07:17:41;11.38;;;7.10;;
57047;SDS011;42934;54.294;18.598;2023-03-23T07:20:21;13.30;;;7.32;;
57047;SDS011;42934;54.294;18.598;2023-03-23T07:22:49;11.25;;;7.47;;
57047;SDS011;42934;54.294;18.598;2023-03-23T07:25:36;15.98;;;7.38;;
57047;SDS011;42934;54.294;18.598;2023-03-23T07:28:08;10.90;;;6.57;;
57047;SDS011;42934;54.294;18.598;2023-03-23T07:30:37;13.27;;;6.72;;
57047;SDS011;42934;54.294;18.598;2023-03-23T07:33:06;9.65;;;6.10;;
57047;SDS011;42934;54.294;18.598;2023-03-23T07:35:35;8.40;;;5.97;;
57047;SDS011;42934;54.294;18.598;2023-03-23T07:38:07;9.73;;;6.30;;
57047;SDS011;42934;54.294;18.598;2023-03-23T07:40:37;10.50;;;6.40;;
57047;SDS011;42934;54.294;18.598;2023-03-23T07:43:14;10.63;;;7.10;;
57047;SDS011;42934;54.294;18.598;2023-03-23T07:46:01;9.55;;;6.68;;
57047;SDS011;42934;54.294;18.598;2023-03-23T07:48:56;9.55;;;6.50;;
57047;SDS011;42934;54.294;18.598;2023-03-23T07:51:32;10.02;;;6.30;;
57047;SDS011;42934;54.294;18.598;2023-03-23T07:54:01;11.73;;;6.93;;
57047;SDS011;42934;54.294;18.598;2023-03-23T07:56:52;10.38;;;6.90;;
57047;SDS011;42934;54.294;18.598;2023-03-23T07:59:26;14.93;;;6.57;;
57047;SDS011;42934;54.294;18.598;2023-03-23T08:01:57;12.00;;;7.30;;
57047;SDS011;42934;54.294;18.598;2023-03-23T08:04:25;12.40;;;6.95;;
57047;SDS011;42934;54.294;18.598;2023-03-23T08:07:08;12.65;;;6.70;;
57047;SDS011;42934;54.294;18.598;2023-03-23T08:10:01;14.95;;;7.10;;
57047;SDS011;42934;54.294;18.598;2023-03-23T08:12:32;9.02;;;6.95;;
57047;SDS011;42934;54.294;18.598;2023-03-23T08:15:14;12.63;;;6.95;;
57047;SDS011;42934;54.294;18.598;2023-03-23T08:17:59;12.23;;;7.13;;
57047;SDS011;42934;54.294;18.598;2023-03-23T08:20:57;10.05;;;6.30;;
57047;SDS011;42934;54.294;18.598;2023-03-23T08:23:51;10.85;;;6.38;;
57047;SDS011;42934;54.294;18.598;2023-03-23T08:26:28;13.63;;;7.00;;
57047;SDS011;42934;54.294;18.598;2023-03-23T08:29:22;12.18;;;6.68;;
57047;SDS011;42934;54.294;18.598;2023-03-23T08:32:22;18.45;;;6.50;;
57047;SDS011;42934;54.294;18.598;2023-03-23T08:35:07;10.80;;;6.82;;
57047;SDS011;42934;54.294;18.598;2023-03-23T08:37:57;11.40;;;6.45;;
57047;SDS011;42934;54.294;18.598;2023-03-23T08:43:45;12.25;;;5.85;;
57047;SDS011;42934;54.294;18.598;2023-03-23T08:46:31;8.38;;;5.95;;
57047;SDS011;42934;54.294;18.598;2023-03-23T08:49:22;8.68;;;5.88;;
57047;SDS011;42934;54.294;18.598;2023-03-23T08:52:11;9.57;;;5.65;;
57047;SDS011;42934;54.294;18.598;2023-03-23T08:54:58;11.10;;;5.82;;
57047;SDS011;42934;54.294;18.598;2023-03-23T08:57:47;7.60;;;5.65;;
57047;SDS011;42934;54.294;18.598;2023-03-23T09:00:49;9.75;;;5.65;;
57047;SDS011;42934;54.294;18.598;2023-03-23T09:03:38;10.57;;;5.20;;
57047;SDS011;42934;54.294;18.598;2023-03-23T09:06:27;8.50;;;5.72;;
57047;SDS011;42934;54.294;18.598;2023-03-23T09:08:55;8.60;;;5.28;;
57047;SDS011;42934;54.294;18.598;2023-03-23T09:11:25;6.70;;;5.05;;
57047;SDS011;42934;54.294;18.598;2023-03-23T09:13:53;8.98;;;5.75;;
57047;SDS011;42934;54.294;18.598;2023-03-23T09:16:22;8.57;;;5.82;;
57047;SDS011;42934;54.294;18.598;2023-03-23T09:18:50;10.00;;;5.82;;
57047;SDS011;42934;54.294;18.598;2023-03-23T09:21:19;8.90;;;5.70;;
57047;SDS011;42934;54.294;18.598;2023-03-23T09:23:48;7.80;;;5.55;;
57047;SDS011;42934;54.294;18.598;2023-03-23T09:26:17;7.55;;;5.05;;
57047;SDS011;42934;54.294;18.598;2023-03-23T09:28:45;10.48;;;5.85;;
57047;SDS011;42934;54.294;18.598;2023-03-23T09:31:14;7.72;;;5.13;;
57047;SDS011;42934;54.294;18.598;2023-03-23T09:33:42;6.38;;;4.95;;
57047;SDS011;42934;54.294;18.598;2023-03-23T09:36:11;9.90;;;5.60;;
57047;SDS011;42934;54.294;18.598;2023-03-23T09:38:42;7.90;;;5.45;;
57047;SDS011;42934;54.294;18.598;2023-03-23T09:41:16;11.40;;;5.53;;
57047;SDS011;42934;54.294;18.598;2023-03-23T09:43:59;7.78;;;5.50;;
57047;SDS011;42934;54.294;18.598;2023-03-23T09:46:38;7.20;;;5.57;;
57047;SDS011;42934;54.294;18.598;2023-03-23T09:49:15;6.40;;;5.27;;
57047;SDS011;42934;54.294;18.598;2023-03-23T09:51:48;9.80;;;5.30;;
57047;SDS011;42934;54.294;18.598;2023-03-23T09:54:19;7.68;;;5.20;;
57047;SDS011;42934;54.294;18.598;2023-03-23T09:56:52;7.03;;;5.32;;
57047;SDS011;42934;54.294;18.598;2023-03-23T09:59:23;9.48;;;5.40;;
57047;SDS011;42934;54.294;18.598;2023-03-23T10:01:55;5.75;;;4.75;;
57047;SDS011;42934;54.294;18.598;2023-03-23T10:04:33;6.65;;;4.97;;
57047;SDS011;42934;54.294;18.598;2023-03-23T10:07:09;6.32;;;4.80;;
57047;SDS011;42934;54.294;18.598;2023-03-23T10:09:39;5.25;;;4.53;;
57047;SDS011;42934;54.294;18.598;2023-03-23T10:12:19;5.80;;;4.40;;
57047;SDS011;42934;54.294;18.598;2023-03-23T10:14:58;7.25;;;4.53;;
57047;SDS011;42934;54.294;18.598;2023-03-23T10:17:36;6.45;;;4.20;;
57047;SDS011;42934;54.294;18.598;2023-03-23T10:20:14;5.15;;;4.43;;
57047;SDS011;42934;54.294;18.598;2023-03-23T10:22:50;5.47;;;4.25;;
57047;SDS011;42934;54.294;18.598;2023-03-23T10:25:24;6.90;;;4.65;;
57047;SDS011;42934;54.294;18.598;2023-03-23T10:27:59;5.03;;;4.00;;
57047;SDS011;42934;54.294;18.598;2023-03-23T10:30:33;4.53;;;3.85;;
57047;SDS011;42934;54.294;18.598;2023-03-23T10:33:04;6.35;;;4.38;;
57047;SDS011;42934;54.294;18.598;2023-03-23T10:35:39;5.88;;;3.83;;
57047;SDS011;42934;54.294;18.598;2023-03-23T10:38:13;5.32;;;3.83;;
57047;SDS011;42934;54.294;18.598;2023-03-23T10:40:48;5.22;;;3.50;;
57047;SDS011;42934;54.294;18.598;2023-03-23T10:43:20;5.03;;;3.28;;
57047;SDS011;42934;54.294;18.598;2023-03-23T10:45:50;3.83;;;3.15;;
57047;SDS011;42934;54.294;18.598;2023-03-23T10:48:25;6.57;;;2.90;;
57047;SDS011;42934;54.294;18.598;2023-03-23T10:50:58;4.57;;;3.30;;
57047;SDS011;42934;54.294;18.598;2023-03-23T10:53:30;4.68;;;3.05;;
57047;SDS011;42934;54.294;18.598;2023-03-23T10:56:00;3.95;;;3.10;;
57047;SDS011;42934;54.294;18.598;2023-03-23T10:58:31;4.80;;;3.33;;
57047;SDS011;42934;54.294;18.598;2023-03-23T11:01:04;4.82;;;3.20;;
57047;SDS011;42934;54.294;18.598;2023-03-23T11:03:38;4.55;;;3.22;;
57047;SDS011;42934;54.294;18.598;2023-03-23T11:06:08;3.88;;;2.90;;
57047;SDS011;42934;54.294;18.598;2023-03-23T11:08:38;4.22;;;3.15;;
57047;SDS011;42934;54.294;18.598;2023-03-23T11:11:17;5.13;;;2.90;;
57047;SDS011;42934;54.294;18.598;2023-03-23T11:13:49;4.05;;;3.00;;
57047;SDS011;42934;54.294;18.598;2023-03-23T11:16:24;3.60;;;2.88;;
57047;SDS011;42934;54.294;18.598;2023-03-23T11:18:54;3.33;;;2.70;;
57047;SDS011;42934;54.294;18.598;2023-03-23T11:21:25;3.58;;;2.90;;
57047;SDS011;42934;54.294;18.598;2023-03-23T11:23:54;2.90;;;2.58;;
57047;SDS011;42934;54.294;18.598;2023-03-23T11:26:27;3.10;;;2.78;;
57047;SDS011;42934;54.294;18.598;2023-03-23T11:28:59;2.97;;;2.58;;
57047;SDS011;42934;54.294;18.598;2023-03-23T11:31:33;3.55;;;2.72;;
57047;SDS011;42934;54.294;18.598;2023-03-23T11:34:03;4.63;;;2.90;;
57047;SDS011;42934;54.294;18.598;2023-03-23T11:36:37;3.10;;;2.80;;
57047;SDS011;42934;54.294;18.598;2023-03-23T11:39:21;3.50;;;2.72;;
57047;SDS011;42934;54.294;18.598;2023-03-23T11:41:51;3.65;;;2.95;;
57047;SDS011;42934;54.294;18.598;2023-03-23T11:44:22;3.85;;;2.92;;
57047;SDS011;42934;54.294;18.598;2023-03-23T11:47:00;3.17;;;2.70;;
57047;SDS011;42934;54.294;18.598;2023-03-23T11:49:36;4.65;;;2.90;;
57047;SDS011;42934;54.294;18.598;2023-03-23T11:52:18;3.22;;;2.83;;
57047;SDS011;42934;54.294;18.598;2023-03-23T11:54:54;3.42;;;2.88;;
57047;SDS011;42934;54.294;18.598;2023-03-23T11:57:30;4.13;;;2.70;;
57047;SDS011;42934;54.294;18.598;2023-03-23T11:59:59;3.08;;;2.38;;
57047;SDS011;42934;54.294;18.598;2023-03-23T12:02:40;2.47;;;2.20;;
57047;SDS011;42934;54.294;18.598;2023-03-23T12:05:29;4.47;;;2.92;;
57047;SDS011;42934;54.294;18.598;2023-03-23T12:08:08;4.25;;;3.03;;
57047;SDS011;42934;54.294;18.598;2023-03-23T12:10:53;4.10;;;3.10;;
57047;SDS011;42934;54.294;18.598;2023-03-23T12:13:32;3.95;;;2.88;;
57047;SDS011;42934;54.294;18.598;2023-03-23T12:16:26;3.25;;;2.80;;
57047;SDS011;42934;54.294;18.598;2023-03-23T12:19:03;3.38;;;2.65;;
57047;SDS011;42934;54.294;18.598;2023-03-23T12:21:45;3.63;;;2.85;;
57047;SDS011;42934;54.294;18.598;2023-03-23T12:24:24;3.47;;;2.90;;
57047;SDS011;42934;54.294;18.598;2023-03-23T12:27:04;3.53;;;2.53;;
57047;SDS011;42934;54.294;18.598;2023-03-23T12:29:53;3.55;;;2.70;;
57047;SDS011;42934;54.294;18.598;2023-03-23T12:32:33;3.58;;;2.90;;
57047;SDS011;42934;54.294;18.598;2023-03-23T12:35:13;3.50;;;2.50;;
57047;SDS011;42934;54.294;18.598;2023-03-23T12:37:53;4.20;;;3.20;;
57047;SDS011;42934;54.294;18.598;2023-03-23T12:43:30;4.43;;;3.08;;
57047;SDS011;42934;54.294;18.598;2023-03-23T12:46:13;3.30;;;2.50;;
57047;SDS011;42934;54.294;18.598;2023-03-23T12:49:01;2.63;;;2.22;;
57047;SDS011;42934;54.294;18.598;2023-03-23T12:51:35;4.05;;;2.40;;
57047;SDS011;42934;54.294;18.598;2023-03-23T12:54:09;3.72;;;2.90;;
57047;SDS011;42934;54.294;18.598;2023-03-23T12:56:44;3.05;;;2.75;;
57047;SDS011;42934;54.294;18.598;2023-03-23T12:59:19;3.70;;;2.80;;
57047;SDS011;42934;54.294;18.598;2023-03-23T13:01:54;2.95;;;2.65;;
57047;SDS011;42934;54.294;18.598;2023-03-23T13:04:27;3.65;;;2.70;;
57047;SDS011;42934;54.294;18.598;2023-03-23T13:07:00;3.22;;;2.47;;
57047;SDS011;42934;54.294;18.598;2023-03-23T13:09:43;3.75;;;2.80;;
57047;SDS011;42934;54.294;18.598;2023-03-23T13:12:16;3.45;;;2.35;;
57047;SDS011;42934;54.294;18.598;2023-03-23T13:14:49;3.58;;;2.80;;
57047;SDS011;42934;54.294;18.598;2023-03-23T13:17:28;3.60;;;2.75;;
57047;SDS011;42934;54.294;18.598;2023-03-23T13:20:13;3.88;;;2.80;;
57047;SDS011;42934;54.294;18.598;2023-03-23T13:23:02;4.82;;;2.45;;
57047;SDS011;42934;54.294;18.598;2023-03-23T13:25:44;3.42;;;2.40;;
57047;SDS011;42934;54.294;18.598;2023-03-23T13:28:17;2.97;;;2.40;;
57047;SDS011;42934;54.294;18.598;2023-03-23T13:30:58;3.92;;;2.50;;
57047;SDS011;42934;54.294;18.598;2023-03-23T13:33:30;3.28;;;2.47;;
57047;SDS011;42934;54.294;18.598;2023-03-23T13:36:08;2.80;;;2.33;;
57047;SDS011;42934;54.294;18.598;2023-03-23T13:38:38;2.40;;;2.20;;
57047;SDS011;42934;54.294;18.598;2023-03-23T13:41:14;3.55;;;2.30;;
57047;SDS011;42934;54.294;18.598;2023-03-23T13:43:45;3.85;;;1.90;;
57047;SDS011;42934;54.294;18.598;2023-03-23T13:46:24;3.33;;;2.10;;
57047;SDS011;42934;54.294;18.598;2023-03-23T13:49:15;4.90;;;2.25;;
57047;SDS011;42934;54.294;18.598;2023-03-23T13:51:58;2.78;;;2.05;;
57047;SDS011;42934;54.294;18.598;2023-03-23T13:54:30;2.83;;;2.03;;
57047;SDS011;42934;54.294;18.598;2023-03-23T13:57:19;2.58;;;2.10;;
57047;SDS011;42934;54.294;18.598;2023-03-23T13:59:55;2.40;;;2.10;;
57047;SDS011;42934;54.294;18.598;2023-03-23T14:02:36;2.13;;;1.92;;
57047;SDS011;42934;54.294;18.598;2023-03-23T14:05:27;3.20;;;1.80;;
57047;SDS011;42934;54.294;18.598;2023-03-23T14:08:01;4.50;;;2.03;;
57047;SDS011;42934;54.294;18.598;2023-03-23T14:10:38;2.25;;;2.03;;
57047;SDS011;42934;54.294;18.598;2023-03-23T14:13:14;2.42;;;2.08;;
57047;SDS011;42934;54.294;18.598;2023-03-23T14:15:53;3.67;;;2.13;;
57047;SDS011;42934;54.294;18.598;2023-03-23T14:18:36;3.17;;;2.03;;
57047;SDS011;42934;54.294;18.598;2023-03-23T14:21:13;3.13;;;1.80;;
57047;SDS011;42934;54.294;18.598;2023-03-23T14:23:45;2.58;;;2.00;;
57047;SDS011;42934;54.294;18.598;2023-03-23T14:26:16;2.42;;;1.83;;
57047;SDS011;42934;54.294;18.598;2023-03-23T14:28:50;3.15;;;2.05;;
57047;SDS011;42934;54.294;18.598;2023-03-23T14:31:22;6.22;;;2.13;;
57047;SDS011;42934;54.294;18.598;2023-03-23T14:33:54;5.78;;;2.30;;
57047;SDS011;42934;54.294;18.598;2023-03-23T14:36:28;2.85;;;2.17;;
57047;SDS011;42934;54.294;18.598;2023-03-23T14:39:02;3.67;;;2.20;;
57047;SDS011;42934;54.294;18.598;2023-03-23T14:41:35;3.45;;;2.40;;
57047;SDS011;42934;54.294;18.598;2023-03-23T14:44:07;3.35;;;2.40;;
57047;SDS011;42934;54.294;18.598;2023-03-23T14:46:44;3.30;;;2.55;;
57047;SDS011;42934;54.294;18.598;2023-03-23T14:49:15;4.80;;;2.60;;
57047;SDS011;42934;54.294;18.598;2023-03-23T14:51:46;2.78;;;2.42;;
57047;SDS011;42934;54.294;18.598;2023-03-23T14:54:22;5.00;;;2.78;;
57047;SDS011;42934;54.294;18.598;2023-03-23T14:56:52;3.15;;;2.85;;
57047;SDS011;42934;54.294;18.598;2023-03-23T14:59:21;3.28;;;2.75;;
57047;SDS011;42934;54.294;18.598;2023-03-23T15:01:50;4.82;;;3.13;;
57047;SDS011;42934;54.294;18.598;2023-03-23T15:04:19;5.22;;;3.17;;
57047;SDS011;42934;54.294;18.598;2023-03-23T15:06:51;3.42;;;2.90;;
57047;SDS011;42934;54.294;18.598;2023-03-23T15:09:24;3.25;;;2.70;;
57047;SDS011;42934;54.294;18.598;2023-03-23T15:11:54;3.13;;;2.67;;
57047;SDS011;42934;54.294;18.598;2023-03-23T15:14:28;3.90;;;2.70;;
57047;SDS011;42934;54.294;18.598;2023-03-23T15:16:59;4.78;;;2.85;;
57047;SDS011;42934;54.294;18.598;2023-03-23T15:19:31;5.50;;;2.60;;
57047;SDS011;42934;54.294;18.598;2023-03-23T15:22:04;3.35;;;2.70;;
57047;SDS011;42934;54.294;18.598;2023-03-23T15:24:38;3.30;;;2.60;;
57047;SDS011;42934;54.294;18.598;2023-03-23T15:27:22;4.70;;;2.83;;
57047;SDS011;42934;54.294;18.598;2023-03-23T15:29:53;4.78;;;3.00;;